Time;durP1;ratioP1;P1;durP2;ratioP2;P2;SDS_P1;SDS_P2;PMS_P1;PMS_P2;Temp;Humidity;BMP_temperature;BMP_pressure;BME280_temperature;BME280_humidity;BME280_pressure;Samples;Min_cycle;Max_cycle;Signal;HPM_P1;HPM_P2
2022/08/30 00:01:01;;;;;;;9.23;2.47;;;16.00;1.00;;;;;;5046492;28;20747;-70
2022/08/30 00:01:53;;;;;;;8.97;2.50;;;16.00;1.00;;;;;;5035549;28;20953;-70
2022/08/30 00:04:19;;;;;;;14.53;2.77;;;16.00;1.00;;;;;;5038564;28;20394;-70
2022/08/30 00:06:45;;;;;;;7.03;2.60;;;16.00;1.00;;;;;;5042322;28;20528;-70
2022/08/30 00:09:10;;;;;;;7.87;2.50;;;16.00;1.00;;;;;;5034705;28;20180;-70
2022/08/30 00:11:36;;;;;;;4.67;2.10;;;16.00;1.00;;;;;;5040572;28;20191;-70
2022/08/30 00:14:02;;;;;;;8.27;2.67;;;15.90;1.00;;;;;;5035285;28;20226;-70
2022/08/30 00:16:28;;;;;;;5.77;2.80;;;15.90;1.00;;;;;;5034349;28;20183;-70
2022/08/30 00:18:54;;;;;;;7.77;2.80;;;15.90;1.00;;;;;;5037947;28;20430;-70
2022/08/30 00:21:21;;;;;;;5.33;2.53;;;15.90;1.00;;;;;;5038599;28;20552;-70
2022/08/30 00:23:47;;;;;;;13.20;2.63;;;15.90;1.00;;;;;;5040095;28;20483;-70
2022/08/30 00:26:46;;;;;;;9.03;2.70;;;15.90;1.00;;;;;;5037290;28;20891;-76
2022/08/30 00:29:23;;;;;;;12.50;2.13;;;15.80;1.00;;;;;;5023212;28;20180;-76
2022/08/30 00:32:01;;;;;;;8.83;2.30;;;15.80;1.00;;;;;;5038535;28;20430;-76
2022/08/30 00:34:31;;;;;;;4.33;2.43;;;15.80;1.00;;;;;;5039890;28;20389;-76
2022/08/30 00:37:17;;;;;;;5.73;2.13;;;15.80;1.00;;;;;;5047200;28;20412;-76
2022/08/30 00:40:11;;;;;;;5.07;2.30;;;15.70;1.00;;;;;;5047774;28;20497;-73
2022/08/30 00:42:42;;;;;;;3.90;1.83;;;15.70;1.00;;;;;;5047232;28;20424;-77
2022/08/30 00:45:18;;;;;;;5.83;2.50;;;15.70;1.00;;;;;;5033937;28;20419;-76
2022/08/30 00:47:44;;;;;;;3.90;2.47;;;15.70;1.00;;;;;;5035462;28;20502;-77
2022/08/30 00:50:58;;;;;;;6.80;2.27;;;15.70;1.00;;;;;;5040197;28;20454;-76
2022/08/30 00:53:35;;;;;;;8.30;2.50;;;15.70;1.00;;;;;;5029157;28;20377;-76
2022/08/30 00:56:12;;;;;;;3.37;2.33;;;15.60;1.00;;;;;;5038388;28;20437;-76
2022/08/30 00:59:06;;;;;;;13.43;1.83;;;15.60;1.00;;;;;;5044570;28;20439;-76
2022/08/30 01:01:36;;;;;;;10.63;2.20;;;15.60;1.00;;;;;;5032257;28;20835;-76
2022/08/30 01:04:46;;;;;;;5.90;2.70;;;15.50;1.00;;;;;;5047160;28;20464;-76
2022/08/30 01:07:20;;;;;;;9.40;2.53;;;15.50;1.00;;;;;;5047320;28;20384;-76
2022/08/30 01:09:47;;;;;;;8.13;3.10;;;15.50;1.00;;;;;;5036365;28;20463;-76
2022/08/30 01:12:17;;;;;;;6.13;2.40;;;15.40;1.00;;;;;;5045786;28;20545;-76
2022/08/30 01:14:53;;;;;;;7.40;2.80;;;15.40;1.00;;;;;;5048814;28;20893;-76
2022/08/30 01:21:16;;;;;;;5.30;2.53;;;15.30;1.00;;;;;;5037942;28;20458;-77
2022/08/30 01:27:39;;;;;;;7.30;2.20;;;15.20;1.00;;;;;;4999130;28;20784;-76
2022/08/30 01:33:47;;;;;;;5.10;2.30;;;15.10;1.00;;;;;;5002444;28;20967;-76
2022/08/30 01:36:47;;;;;;;5.97;2.50;;;15.00;1.00;;;;;;4999890;28;20555;-77
2022/08/30 01:39:18;;;;;;;8.10;2.60;;;15.00;1.00;;;;;;4991772;28;20429;-77
2022/08/30 01:41:44;;;;;;;6.43;3.17;;;14.90;1.00;;;;;;4992162;28;20421;-70
2022/08/30 01:44:11;;;;;;;13.60;2.70;;;14.90;1.00;;;;;;5001442;28;20490;-71
2022/08/30 01:46:44;;;;;;;6.00;2.20;;;14.90;1.00;;;;;;4995103;28;20487;-70
2022/08/30 01:49:16;;;;;;;9.33;2.63;;;14.90;1.00;;;;;;4998340;28;20453;-70
2022/08/30 01:51:42;;;;;;;9.37;2.40;;;14.80;1.00;;;;;;5011239;28;20461;-71
2022/08/30 01:54:09;;;;;;;4.67;2.47;;;14.80;1.00;;;;;;4992384;28;20427;-70
2022/08/30 01:56:41;;;;;;;3.10;2.13;;;14.80;1.00;;;;;;4998640;28;20390;-76
2022/08/30 01:59:29;;;;;;;7.33;2.27;;;14.80;1.00;;;;;;5010177;28;20940;-77
2022/08/30 02:05:23;;;;;;;8.13;2.37;;;14.70;1.00;;;;;;5036194;28;20855;-76
2022/08/30 02:08:40;;;;;;;5.80;2.40;;;14.70;1.00;;;;;;5039649;28;20920;-76
2022/08/30 02:15:05;;;;;;;6.87;2.93;;;14.70;1.00;;;;;;5027150;28;20390;-76
2022/08/30 02:17:31;;;;;;;7.40;2.17;;;14.70;1.00;;;;;;5034361;28;20421;-76
2022/08/30 02:20:29;;;;;;;4.53;2.27;;;14.60;1.00;;;;;;5038180;28;20419;-76
2022/08/30 02:22:59;;;;;;;5.23;2.17;;;14.60;1.00;;;;;;5028128;28;20505;-76
2022/08/30 02:25:41;;;;;;;3.47;2.63;;;14.60;1.00;;;;;;5046889;28;20423;-76
2022/08/30 02:28:14;;;;;;;4.00;2.50;;;14.60;1.00;;;;;;5031460;28;20410;-70
2022/08/30 02:30:41;;;;;;;7.07;2.47;;;14.60;1.00;;;;;;5037258;28;20490;-70
2022/08/30 02:33:07;;;;;;;6.10;2.07;;;14.60;1.00;;;;;;5046069;28;20426;-71
2022/08/30 02:35:35;;;;;;;4.30;2.57;;;14.60;1.00;;;;;;5049707;28;20381;-71
2022/08/30 02:38:01;;;;;;;11.33;2.93;;;14.50;1.00;;;;;;5035267;28;20174;-71
2022/08/30 02:40:27;;;;;;;10.00;3.73;;;14.50;1.00;;;;;;5038850;28;20422;-71
2022/08/30 02:42:52;;;;;;;11.47;2.90;;;14.50;1.00;;;;;;5036052;28;20180;-70
2022/08/30 02:45:18;;;;;;;8.70;2.70;;;14.50;1.00;;;;;;5043365;28;20175;-70
2022/08/30 02:47:44;;;;;;;6.87;2.90;;;14.40;1.00;;;;;;5038431;28;20192;-71
2022/08/30 02:50:10;;;;;;;6.10;2.60;;;14.40;1.00;;;;;;5042624;28;20203;-71
2022/08/30 02:52:36;;;;;;;8.67;3.10;;;14.40;1.00;;;;;;5036578;28;20180;-70
2022/08/30 02:55:04;;;;;;;3.60;2.67;;;14.40;1.00;;;;;;5056077;28;20380;-71
2022/08/30 02:57:30;;;;;;;5.03;3.07;;;14.40;1.00;;;;;;5038242;28;20482;-70
2022/08/30 02:59:56;;;;;;;4.47;3.27;;;14.40;1.00;;;;;;5034958;28;20824;-70
2022/08/30 03:02:22;;;;;;;9.47;3.10;;;14.40;1.00;;;;;;5049342;28;20183;-71
2022/08/30 03:04:48;;;;;;;6.83;2.97;;;14.30;1.00;;;;;;5042173;28;20475;-71
2022/08/30 03:07:15;;;;;;;3.50;2.60;;;14.30;1.00;;;;;;5035880;28;20180;-71
2022/08/30 03:09:40;;;;;;;5.67;2.70;;;14.30;1.00;;;;;;5051976;28;20487;-70
2022/08/30 03:12:07;;;;;;;7.40;2.60;;;14.30;1.00;;;;;;5037572;28;20427;-71
2022/08/30 03:14:37;;;;;;;4.77;2.20;;;14.30;1.00;;;;;;5046726;28;20267;-70
2022/08/30 03:17:05;;;;;;;4.17;2.30;;;14.30;1.00;;;;;;5042629;28;20438;-71
2022/08/30 03:19:32;;;;;;;4.60;2.67;;;14.40;1.00;;;;;;5035281;28;20382;-71
2022/08/30 03:21:58;;;;;;;2.90;2.03;;;14.30;1.00;;;;;;5036434;28;20550;-71
2022/08/30 03:24:24;;;;;;;3.80;2.70;;;14.30;1.00;;;;;;5039017;28;20930;-70
2022/08/30 03:26:59;;;;;;;4.47;2.23;;;14.30;1.00;;;;;;5035146;28;20480;-77
2022/08/30 03:29:29;;;;;;;5.47;2.97;;;14.40;1.00;;;;;;5046195;28;20893;-76
2022/08/30 03:32:29;;;;;;;3.07;2.10;;;14.50;1.00;;;;;;5029939;28;20419;-77
2022/08/30 03:35:06;;;;;;;6.53;2.43;;;14.60;1.00;;;;;;5035575;28;20403;-77
2022/08/30 03:37:41;;;;;;;5.40;2.90;;;14.60;1.00;;;;;;5035394;28;20422;-76
2022/08/30 03:44:05;;;;;;;10.13;2.80;;;14.70;1.00;;;;;;5048540;28;20434;-77
2022/08/30 03:46:30;;;;;;;5.10;2.73;;;14.80;1.00;;;;;;5039190;28;20459;-77
2022/08/30 03:49:06;;;;;;;7.00;2.70;;;14.80;1.00;;;;;;5055141;28;20406;-77
2022/08/30 03:55:00;;;;;;;6.87;2.57;;;14.90;1.00;;;;;;5041506;28;20448;-77
2022/08/30 03:57:27;;;;;;;10.13;2.60;;;14.90;1.00;;;;;;5035155;28;20747;-71
2022/08/30 03:59:52;;;;;;;9.10;2.30;;;14.90;1.00;;;;;;5033752;28;20516;-71
2022/08/30 04:02:19;;;;;;;5.13;2.80;;;15.00;1.00;;;;;;5043884;28;20513;-71
2022/08/30 04:04:45;;;;;;;8.40;2.87;;;14.90;1.00;;;;;;5046089;28;20427;-70
2022/08/30 04:07:11;;;;;;;24.83;3.90;;;14.90;1.00;;;;;;5035873;28;20904;-71
2022/08/30 04:09:38;;;;;;;5.33;2.70;;;14.90;1.00;;;;;;5054902;28;20432;-71
2022/08/30 04:12:29;;;;;;;8.27;2.67;;;14.90;1.00;;;;;;5035523;28;20417;-77
2022/08/30 04:18:17;;;;;;;4.87;2.77;;;14.90;1.00;;;;;;5026280;28;20468;-76
2022/08/30 04:20:59;;;;;;;7.73;2.20;;;14.80;1.00;;;;;;5052474;28;20426;-77
2022/08/30 04:23:52;;;;;;;6.93;3.33;;;14.80;1.00;;;;;;5040065;28;20650;-77
2022/08/30 04:26:47;;;;;;;3.70;2.40;;;14.80;1.00;;;;;;5021338;28;20426;-77
2022/08/30 04:29:15;;;;;;;9.53;2.23;;;14.80;1.00;;;;;;5042854;28;20430;-70
2022/08/30 04:31:47;;;;;;;4.80;2.20;;;14.80;1.00;;;;;;5040878;28;20462;-71
2022/08/30 04:34:13;;;;;;;7.37;2.40;;;14.80;1.00;;;;;;5034165;28;20439;-71
2022/08/30 04:36:39;;;;;;;3.37;2.33;;;14.80;1.00;;;;;;5036989;28;20868;-71
2022/08/30 04:42:30;;;;;;;10.60;3.00;;;14.80;1.00;;;;;;5032811;28;20203;-83
2022/08/30 04:45:08;;;;;;;4.33;2.30;;;14.80;1.00;;;;;;5052585;28;20418;-83
2022/08/30 04:54:17;;;;;;;9.73;2.70;;;14.90;1.00;;;;;;5040359;28;20437;-82
2022/08/30 05:07:19;;;;;;;6.03;2.70;;;15.10;1.00;;;;;;5028047;28;20929;-83
2022/08/30 05:09:45;;;;;;;12.70;2.03;;;15.10;1.00;;;;;;5017284;28;20465;-83
2022/08/30 05:15:35;;;;;;;11.03;2.60;;;15.20;1.00;;;;;;5042530;28;20448;-83
2022/08/30 05:21:26;;;;;;;6.90;2.77;;;15.20;1.00;;;;;;5020564;28;20600;-83
2022/08/30 05:24:47;;;;;;;10.33;2.93;;;15.30;1.00;;;;;;5032071;28;20394;-83
2022/08/30 05:34:12;;;;;;;7.30;3.30;;;15.40;1.00;;;;;;5013755;28;20364;-82
2022/08/30 05:40:17;;;;;;;17.87;3.87;;;15.50;1.00;;;;;;5039190;28;20410;-81
2022/08/30 05:46:09;;;;;;;5.80;2.30;;;15.70;1.00;;;;;;5013958;28;20376;-83
2022/08/30 05:51:56;;;;;;;6.03;2.40;;;15.90;1.00;;;;;;5024583;28;20373;-83
2022/08/30 05:57:44;;;;;;;10.53;2.87;;;16.10;1.00;;;;;;5033858;28;20160;-83
2022/08/30 06:03:34;;;;;;;8.30;2.57;;;16.40;1.00;;;;;;5031442;28;20541;-82
2022/08/30 06:06:47;;;;;;;11.80;3.00;;;16.70;1.00;;;;;;5025504;28;20472;-82
2022/08/30 06:09:30;;;;;;;7.60;2.43;;;16.70;1.00;;;;;;5043965;28;20441;-83
2022/08/30 06:15:17;;;;;;;6.93;2.27;;;17.00;1.00;;;;;;5017214;28;20372;-83
2022/08/30 06:17:59;;;;;;;5.53;2.90;;;17.20;1.00;;;;;;5033138;28;20383;-83
2022/08/30 06:20:53;;;;;;;4.93;2.70;;;17.30;1.00;;;;;;5030752;28;20264;-82
2022/08/30 06:26:43;;;;;;;10.40;2.93;;;17.60;1.00;;;;;;5034872;28;20407;-84
2022/08/30 06:29:29;;;;;;;8.57;3.00;;;17.80;1.00;;;;;;5036672;28;20401;-83
2022/08/30 06:32:28;;;;;;;8.70;2.83;;;17.90;1.00;;;;;;5049471;28;20468;-83
2022/08/30 06:38:16;;;;;;;8.43;2.53;;;18.30;1.00;;;;;;5053657;28;20414;-83
2022/08/30 06:40:42;;;;;;;10.40;3.13;;;18.40;1.00;;;;;;5034384;28;20924;-82
2022/08/30 06:43:07;;;;;;;7.90;2.43;;;18.60;1.00;;;;;;5036477;28;20187;-83
2022/08/30 06:45:34;;;;;;;6.40;2.60;;;18.70;1.00;;;;;;5047434;28;20183;-83
2022/08/30 06:47:59;;;;;;;7.43;2.70;;;18.90;1.00;;;;;;5042536;28;20187;-83
2022/08/30 06:50:25;;;;;;;6.80;2.50;;;19.10;1.00;;;;;;5035343;28;20819;-83
2022/08/30 06:52:51;;;;;;;9.70;3.00;;;19.20;1.00;;;;;;5038202;28;20297;-83
2022/08/30 06:55:18;;;;;;;16.43;2.87;;;19.40;1.00;;;;;;5053405;28;20185;-83
2022/08/30 06:57:44;;;;;;;5.30;2.90;;;19.50;1.00;;;;;;5036045;28;20171;-83
2022/08/30 07:00:15;;;;;;;17.07;2.63;;;19.70;1.00;;;;;;5035590;28;20908;-82
2022/08/30 07:02:41;;;;;;;12.23;2.60;;;19.80;1.00;;;;;;5035025;28;20902;-82
2022/08/30 07:05:11;;;;;;;16.50;2.57;;;19.90;1.00;;;;;;5044446;28;20920;-81
2022/08/30 07:07:38;;;;;;;5.83;2.90;;;20.00;1.00;;;;;;5025576;28;20431;-82
2022/08/30 07:10:06;;;;;;;8.50;3.20;;;20.10;1.00;;;;;;5046013;28;20840;-82
2022/08/30 07:12:35;;;;;;;9.03;2.77;;;20.30;1.00;;;;;;5036503;28;20420;-82
2022/08/30 07:15:03;;;;;;;7.70;2.60;;;20.40;1.00;;;;;;5024454;28;20486;-83
2022/08/30 07:20:18;;;;;;;14.23;2.50;;;20.60;1.00;;;;;;5049255;28;20421;-83
2022/08/30 07:22:44;;;;;;;6.37;2.53;;;20.60;1.00;;;;;;5040360;28;20462;-82
2022/08/30 07:25:09;;;;;;;9.03;2.60;;;20.70;1.00;;;;;;5033482;28;20859;-83
2022/08/30 07:27:35;;;;;;;4.70;2.80;;;20.70;1.00;;;;;;5038049;28;20518;-83
2022/08/30 07:30:02;;;;;;;10.37;2.90;;;20.90;1.00;;;;;;5043883;28;20207;-83
2022/08/30 07:32:28;;;;;;;7.07;2.70;;;20.90;1.00;;;;;;5040218;28;20182;-83
2022/08/30 07:34:54;;;;;;;8.73;2.97;;;21.10;1.00;;;;;;5035309;28;20420;-83
2022/08/30 07:37:19;;;;;;;11.13;2.97;;;21.20;1.00;;;;;;5037824;28;20437;-83
2022/08/30 07:39:45;;;;;;;8.50;2.70;;;21.30;1.00;;;;;;5034294;28;20435;-83
2022/08/30 07:42:11;;;;;;;6.93;2.33;;;21.40;1.00;;;;;;5033142;28;20775;-83
2022/08/30 07:44:36;;;;;;;14.97;2.67;;;21.50;1.00;;;;;;5034581;28;20217;-82
2022/08/30 07:47:02;;;;;;;13.70;3.30;;;21.70;1.00;;;;;;5029779;28;20188;-82
2022/08/30 07:49:28;;;;;;;4.20;2.50;;;21.80;1.00;;;;;;5045158;28;20570;-82
2022/08/30 07:51:55;;;;;;;11.43;3.03;;;21.90;1.00;;;;;;5025680;28;20415;-82
2022/08/30 07:54:20;;;;;;;17.10;2.83;;;22.00;1.00;;;;;;5044971;28;20645;-82
2022/08/30 07:56:47;;;;;;;9.20;2.73;;;22.10;1.00;;;;;;5043565;28;20481;-82
2022/08/30 07:59:13;;;;;;;4.73;1.93;;;22.20;1.00;;;;;;5051112;28;20188;-83
2022/08/30 08:01:38;;;;;;;6.43;2.83;;;22.30;1.00;;;;;;5053858;28;20411;-83
2022/08/30 08:04:04;;;;;;;5.60;2.47;;;22.40;1.00;;;;;;5039003;28;20657;-82
2022/08/30 08:06:30;;;;;;;8.27;2.50;;;22.40;1.00;;;;;;5037573;28;20191;-82
2022/08/30 08:09:00;;;;;;;13.17;3.13;;;22.50;1.00;;;;;;5034306;28;20431;-77
2022/08/30 08:14:59;;;;;;;13.57;2.60;;;22.70;1.00;;;;;;5033988;28;20467;-85
2022/08/30 08:18:10;;;;;;;7.90;2.63;;;22.70;1.00;;;;;;5036207;28;20789;-85
2022/08/30 08:21:05;;;;;;;6.73;2.57;;;22.80;1.00;;;;;;5034857;28;20526;-85
2022/08/30 08:23:35;;;;;;;5.97;2.80;;;23.00;1.00;;;;;;5045094;28;20438;-85
2022/08/30 08:26:01;;;;;;;7.80;2.77;;;23.20;1.00;;;;;;5029575;28;20577;-81
2022/08/30 08:35:11;;;;;;;6.77;3.03;;;23.40;1.00;;;;;;5039520;28;20905;-82
2022/08/30 08:38:17;;;;;;;8.50;2.23;;;23.50;1.00;;;;;;5047342;28;20428;-81
2022/08/30 08:41:20;;;;;;;13.27;2.87;;;23.50;1.00;;;;;;5034268;28;20169;-81
2022/08/30 08:43:54;;;;;;;5.70;2.10;;;23.60;1.00;;;;;;5016525;28;20412;-81
2022/08/30 08:50:13;;;;;;;5.67;2.47;;;23.80;1.00;;;;;;5033904;28;20383;-82
2022/08/30 08:56:10;;;;;;;8.13;2.90;;;24.00;1.00;;;;;;5038529;28;20438;-79
2022/08/30 09:05:59;;;;;;;4.43;2.57;;;24.40;1.00;;;;;;5023934;28;20785;-78
2022/08/30 09:12:11;;;;;;;5.93;2.77;;;24.70;1.00;;;;;;5040682;28;20600;-79
2022/08/30 09:15:17;;;;;;;10.77;3.10;;;24.80;1.00;;;;;;5031631;28;20441;-78
2022/08/30 09:21:41;;;;;;;8.10;2.43;;;24.90;1.00;;;;;;5040440;28;20404;-79
2022/08/30 09:24:18;;;;;;;5.83;2.50;;;25.00;1.00;;;;;;5032114;28;20437;-78
2022/08/30 09:27:17;;;;;;;5.93;2.47;;;25.00;1.00;;;;;;5013944;28;20430;-78
2022/08/30 09:30:19;;;;;;;11.17;3.13;;;25.10;1.00;;;;;;5032749;28;20426;-79
2022/08/30 09:33:00;;;;;;;19.43;2.90;;;25.20;1.00;;;;;;5019837;28;20519;-78
2022/08/30 09:35:50;;;;;;;18.53;3.13;;;25.30;1.00;;;;;;5014645;28;20450;-79
2022/08/30 09:38:18;;;;;;;6.40;2.97;;;25.40;1.00;;;;;;5021901;28;20937;-78
2022/08/30 09:40:56;;;;;;;8.90;2.20;;;25.60;1.00;;;;;;5004553;28;20937;-78
2022/08/30 09:43:23;;;;;;;10.80;2.40;;;25.70;1.00;;;;;;5013315;28;20440;-79
2022/08/30 09:49:31;;;;;;;9.40;2.30;;;26.00;1.00;;;;;;5013907;28;20426;-80
2022/08/30 09:52:28;;;;;;;4.27;2.20;;;26.10;1.00;;;;;;4992816;28;20438;-80
2022/08/30 09:58:40;;;;;;;7.60;2.13;;;26.20;1.00;;;;;;5013810;28;20436;-80
2022/08/30 10:01:30;;;;;;;9.83;2.53;;;26.40;1.00;;;;;;4998483;28;20500;-80
2022/08/30 10:04:17;;;;;;;3.63;2.20;;;26.60;1.00;;;;;;5015293;28;20454;-81
2022/08/30 10:07:27;;;;;;;9.50;2.57;;;26.80;1.00;;;;;;5025242;28;20419;-82
2022/08/30 10:10:34;;;;;;;5.93;2.00;;;26.90;1.00;;;;;;5017309;28;20546;-80
2022/08/30 10:13:11;;;;;;;8.07;2.40;;;27.00;1.00;;;;;;5035881;28;20415;-82
2022/08/30 10:15:46;;;;;;;8.37;2.37;;;27.20;1.00;;;;;;5037003;28;20440;-77
2022/08/30 10:18:20;;;;;;;6.23;2.23;;;27.20;1.00;;;;;;5036208;28;20466;-78
2022/08/30 10:20:59;;;;;;;7.17;2.30;;;27.30;1.00;;;;;;5053966;28;20414;-78
2022/08/30 10:23:30;;;;;;;10.33;2.50;;;27.30;1.00;;;;;;5051972;28;20538;-79
2022/08/30 10:26:10;;;;;;;7.63;2.20;;;27.40;1.00;;;;;;5043187;28;20426;-80
2022/08/30 10:28:39;;;;;;;3.30;2.23;;;27.40;1.00;;;;;;5048227;28;20484;-78
2022/08/30 10:31:25;;;;;;;6.73;2.33;;;27.50;1.00;;;;;;5051549;28;20523;-81
2022/08/30 10:33:55;;;;;;;6.07;2.33;;;27.70;1.00;;;;;;5043162;28;20836;-80
2022/08/30 10:36:29;;;;;;;8.83;2.37;;;27.70;1.00;;;;;;5052261;28;20425;-78
2022/08/30 10:39:35;;;;;;;4.77;2.50;;;27.80;1.00;;;;;;5036042;28;20431;-80
2022/08/30 10:42:15;;;;;;;3.20;2.10;;;27.90;1.00;;;;;;5051143;28;20435;-80
2022/08/30 10:48:15;;;;;;;2.07;1.87;;;28.10;1.00;;;;;;5049578;28;20754;-78
2022/08/30 10:51:23;;;;;;;1.90;1.80;;;28.10;1.00;;;;;;5034600;28;20464;-78
2022/08/30 10:57:18;;;;;;;3.30;1.60;;;28.30;1.00;;;;;;5030333;28;20913;-77
2022/08/30 11:03:28;;;;;;;4.63;1.90;;;28.60;1.00;;;;;;5035198;28;20401;-79
2022/08/30 11:09:36;;;;;;;8.00;2.20;;;28.70;1.00;;;;;;5033646;28;20434;-80
2022/08/30 11:12:20;;;;;;;4.83;2.13;;;28.80;1.00;;;;;;4967698;28;20490;-80
2022/08/30 11:14:46;;;;;;;6.80;2.20;;;28.90;1.00;;;;;;4972482;28;20433;-79
2022/08/30 11:17:43;;;;;;;3.50;2.10;;;28.90;1.00;;;;;;4982300;28;20499;-81
2022/08/30 11:20:26;;;;;;;3.37;1.80;;;29.00;1.00;;;;;;4973915;28;20220;-81
2022/08/30 11:23:17;;;;;;;2.90;2.10;;;29.20;1.00;;;;;;4974050;28;20457;-81
2022/08/30 11:25:54;;;;;;;5.90;2.30;;;29.30;1.00;;;;;;4971971;28;20443;-81
2022/08/30 11:28:35;;;;;;;7.80;2.57;;;29.40;1.00;;;;;;4974063;28;20455;-82
2022/08/30 11:31:10;;;;;;;11.93;2.83;;;29.30;1.00;;;;;;4970403;28;20515;-80
2022/08/30 11:33:48;;;;;;;3.73;2.20;;;29.20;1.00;;;;;;4973693;28;21084;-81
2022/08/30 11:36:29;;;;;;;7.13;2.30;;;29.30;1.00;;;;;;4973221;28;20429;-81
2022/08/30 11:38:54;;;;;;;4.23;2.70;;;29.40;1.00;;;;;;4971682;28;20467;-80
2022/08/30 11:41:37;;;;;;;4.60;2.47;;;29.50;1.00;;;;;;4976404;28;20487;-80
2022/08/30 11:44:21;;;;;;;5.17;2.13;;;29.60;1.00;;;;;;4974360;28;20244;-80
2022/08/30 11:46:59;;;;;;;9.93;2.53;;;29.70;1.00;;;;;;4972413;28;20459;-82
2022/08/30 11:49:44;;;;;;;2.50;2.13;;;29.80;1.00;;;;;;5020843;28;20535;-82
2022/08/30 11:52:38;;;;;;;3.00;2.10;;;29.90;1.00;;;;;;5027126;28;20437;-86
2022/08/30 12:01:47;;;;;;;2.77;2.30;;;30.30;1.00;;;;;;5041786;28;20420;-76
2022/08/30 12:04:16;;;;;;;8.20;2.43;;;30.40;1.00;;;;;;5037114;28;20426;-77
2022/08/30 12:07:04;;;;;;;10.20;2.50;;;30.40;1.00;;;;;;5029188;28;20508;-77
2022/08/30 12:09:31;;;;;;;5.47;2.27;;;30.40;1.00;;;;;;5033965;28;20457;-77
2022/08/30 12:12:04;;;;;;;6.60;2.93;;;30.50;1.00;;;;;;5027243;28;20466;-76
2022/08/30 12:15:00;;;;;;;2.80;2.50;;;30.50;1.00;;;;;;5033884;28;20488;-77
2022/08/30 12:20:49;;;;;;;2.43;2.20;;;30.50;1.00;;;;;;5036537;28;20414;-82
2022/08/30 12:23:53;;;;;;;3.37;2.27;;;30.60;1.00;;;;;;5036648;28;20549;-80
2022/08/30 12:27:11;;;;;;;2.40;2.20;;;30.70;1.00;;;;;;5019029;28;20419;-81
2022/08/30 12:36:53;;;;;;;2.70;2.20;;;30.90;1.00;;;;;;5024941;28;20451;-82
2022/08/30 12:39:29;;;;;;;2.90;2.33;;;31.00;1.00;;;;;;5033959;28;20473;-78
2022/08/30 12:48:40;;;;;;;3.17;2.33;;;31.40;1.00;;;;;;5028082;28;20409;-81
2022/08/30 12:51:40;;;;;;;3.50;2.23;;;31.30;1.00;;;;;;5027763;28;20549;-81
2022/08/30 12:54:28;;;;;;;2.23;2.03;;;31.40;1.00;;;;;;5025831;28;20840;-81
2022/08/30 13:07:27;;;;;;;3.57;2.30;;;31.90;1.00;;;;;;5013761;28;21047;-82
2022/08/30 13:10:14;;;;;;;2.83;2.50;;;32.00;1.00;;;;;;5025835;28;20427;-82
2022/08/30 13:16:29;;;;;;;3.00;1.80;;;31.90;1.00;;;;;;5031150;28;20975;-83
2022/08/30 13:23:01;;;;;;;4.40;2.03;;;32.00;1.00;;;;;;5039902;28;20448;-81
2022/08/30 13:32:12;;;;;;;4.93;2.30;;;31.70;1.00;;;;;;4990375;28;20400;-81
2022/08/30 13:34:43;;;;;;;3.53;2.37;;;31.60;1.00;;;;;;4982549;28;20417;-77
2022/08/30 13:37:30;;;;;;;2.70;2.23;;;31.60;1.00;;;;;;4991491;28;20436;-77
2022/08/30 13:39:55;;;;;;;5.30;2.40;;;31.70;1.00;;;;;;4997929;28;20456;-77
2022/08/30 13:42:23;;;;;;;4.83;2.60;;;31.90;1.00;;;;;;5000327;28;20501;-76
2022/08/30 13:44:49;;;;;;;3.77;2.10;;;32.10;1.00;;;;;;4992713;28;20596;-76
2022/08/30 13:47:17;;;;;;;2.80;2.10;;;32.30;1.00;;;;;;5001527;28;20416;-76
2022/08/30 13:53:04;;;;;;;3.03;2.30;;;32.70;1.00;;;;;;4992647;28;20405;-86
2022/08/30 13:56:05;;;;;;;3.47;2.47;;;32.80;1.00;;;;;;5005344;28;20420;-79
2022/08/30 13:58:53;;;;;;;2.27;2.00;;;32.90;1.00;;;;;;4999078;28;20424;-79
2022/08/30 14:01:24;;;;;;;5.23;3.20;;;32.90;1.00;;;;;;5010349;28;20460;-79
2022/08/30 14:04:23;;;;;;;2.93;2.33;;;32.90;1.00;;;;;;5043053;28;20426;-79
2022/08/30 14:07:20;;;;;;;2.90;2.00;;;33.00;1.00;;;;;;5046636;28;20457;-80
2022/08/30 14:13:08;;;;;;;2.20;2.00;;;33.00;1.00;;;;;;5013433;28;20387;-83
2022/08/30 14:19:06;;;;;;;6.97;2.37;;;32.60;1.00;;;;;;5020088;28;20402;-83
2022/08/30 14:25:35;;;;;;;7.67;2.50;;;32.70;1.00;;;;;;5035446;28;20916;-84
2022/08/30 14:28:01;;;;;;;3.03;2.37;;;32.90;1.00;;;;;;5033637;28;20516;-83
2022/08/30 14:33:49;;;;;;;2.30;2.03;;;32.90;1.00;;;;;;5034853;28;20421;-76
2022/08/30 14:36:16;;;;;;;2.13;2.00;;;32.80;1.00;;;;;;5037360;28;20427;-76
2022/08/30 14:38:44;;;;;;;2.43;2.10;;;32.80;1.00;;;;;;5036764;28;20751;-76
2022/08/30 14:41:09;;;;;;;8.90;2.67;;;32.80;1.00;;;;;;5042514;28;20430;-76
2022/08/30 14:43:36;;;;;;;2.83;2.10;;;32.80;1.00;;;;;;5038454;28;20431;-76
2022/08/30 14:46:02;;;;;;;5.20;2.30;;;32.80;1.00;;;;;;5036376;28;20255;-75
2022/08/30 14:48:30;;;;;;;5.80;2.57;;;32.70;1.00;;;;;;5036297;28;20513;-76
2022/08/30 14:50:55;;;;;;;2.73;2.03;;;32.60;1.00;;;;;;5036356;28;20829;-75
2022/08/30 14:53:24;;;;;;;3.30;1.80;;;32.70;1.00;;;;;;5036143;28;20419;-77
2022/08/30 14:55:49;;;;;;;2.20;2.00;;;33.00;1.00;;;;;;5035869;28;20203;-75
2022/08/30 14:58:16;;;;;;;5.70;2.33;;;33.60;1.00;;;;;;5045949;28;20897;-75
2022/08/30 15:00:48;;;;;;;1.90;1.80;;;34.70;1.00;;;;;;5043851;28;20632;-75
2022/08/30 15:03:23;;;;;;;4.77;1.83;;;35.30;1.00;;;;;;5036087;28;20412;-77
2022/08/30 15:06:06;;;;;;;3.43;2.10;;;36.20;1.00;;;;;;5036226;28;20423;-84
2022/08/30 15:08:36;;;;;;;3.23;1.70;;;37.10;1.00;;;;;;5050327;28;20442;-82
2022/08/30 15:17:47;;;;;;;11.43;1.80;;;40.10;1.00;;;;;;5037480;28;20394;-79
2022/08/30 15:20:18;;;;;;;9.67;3.77;;;41.10;1.00;;;;;;5046887;28;20898;-76
2022/08/30 15:22:47;;;;;;;70.20;37.70;;;41.60;1.00;;;;;;5035645;28;20403;-76
2022/08/30 15:25:17;;;;;;;2.57;1.73;;;41.80;1.00;;;;;;5048934;28;20423;-76
2022/08/30 15:27:44;;;;;;;2.50;1.50;;;42.10;1.00;;;;;;5045584;28;20476;-77
2022/08/30 15:30:29;;;;;;;4.07;1.77;;;42.30;1.00;;;;;;5028679;28;20471;-78
2022/08/30 15:32:55;;;;;;;1.97;1.80;;;42.80;1.00;;;;;;5033661;28;20420;-77
2022/08/30 15:35:53;;;;;;;4.20;1.80;;;42.90;1.00;;;;;;5046454;28;20423;-77
2022/08/30 15:38:23;;;;;;;3.63;1.70;;;43.00;1.00;;;;;;5041897;28;20256;-77
2022/08/30 15:41:17;;;;;;;2.47;1.60;;;43.20;1.00;;;;;;5047228;28;20556;-77
2022/08/30 15:43:48;;;;;;;1.90;1.70;;;43.50;1.00;;;;;;5035147;28;20486;-77
2022/08/30 15:46:24;;;;;;;1.23;1.23;;;43.80;1.00;;;;;;5035188;28;20426;-77
2022/08/30 15:48:56;;;;;;;1.30;1.27;;;44.30;1.00;;;;;;5037010;28;20431;-77
2022/08/30 15:51:23;;;;;;;2.70;1.63;;;45.00;1.00;;;;;;5048601;28;20455;-82
2022/08/30 15:53:50;;;;;;;1.83;1.60;;;45.50;1.00;;;;;;5043764;28;20518;-83
2022/08/30 15:56:35;;;;;;;2.13;1.40;;;45.10;1.00;;;;;;5041046;28;20828;-81
2022/08/30 16:02:24;;;;;;;2.70;1.53;;;44.90;1.00;;;;;;5044425;28;20402;-82
2022/08/30 16:08:11;;;;;;;2.10;1.37;;;43.90;1.00;;;;;;5035723;28;20414;-81
2022/08/30 16:11:14;;;;;;;3.30;1.57;;;42.60;1.00;;;;;;5037227;28;20958;-81
2022/08/30 16:14:29;;;;;;;1.60;1.50;;;41.50;1.00;;;;;;5043991;28;20174;-82
2022/08/30 16:17:23;;;;;;;3.67;2.03;;;40.10;1.00;;;;;;5027164;28;20450;-80
2022/08/30 16:19:49;;;;;;;4.23;1.67;;;38.70;1.00;;;;;;5047655;28;20417;-75
2022/08/30 16:22:25;;;;;;;1.90;1.80;;;37.70;1.00;;;;;;5041179;28;20778;-74
2022/08/30 16:24:51;;;;;;;2.10;1.90;;;36.80;1.00;;;;;;5041693;28;20172;-74
2022/08/30 16:27:16;;;;;;;2.30;2.10;;;36.00;1.00;;;;;;5046796;28;20438;-74
2022/08/30 16:29:47;;;;;;;2.20;2.00;;;35.30;1.00;;;;;;5047889;28;20616;-74
2022/08/30 16:32:13;;;;;;;3.40;2.13;;;34.60;1.00;;;;;;5054440;28;20179;-74
2022/08/30 16:34:40;;;;;;;2.73;2.40;;;34.00;1.00;;;;;;5037618;28;20941;-75
2022/08/30 16:37:24;;;;;;;4.00;2.43;;;33.60;1.00;;;;;;5034320;28;20167;-81
2022/08/30 16:40:07;;;;;;;4.33;2.40;;;33.00;1.00;;;;;;5040828;28;20901;-80
2022/08/30 16:42:59;;;;;;;3.13;2.60;;;32.60;1.00;;;;;;5039373;28;20770;-78
2022/08/30 16:49:21;;;;;;;8.40;2.30;;;31.80;1.00;;;;;;5013348;28;20931;-80
2022/08/30 16:51:47;;;;;;;2.63;2.40;;;31.40;1.00;;;;;;5032340;28;20462;-79
2022/08/30 16:54:30;;;;;;;4.17;2.43;;;31.10;1.00;;;;;;5050094;28;20422;-80
2022/08/30 17:07:18;;;;;;;3.87;2.57;;;30.10;1.00;;;;;;5027536;28;20406;-81
2022/08/30 17:10:17;;;;;;;5.50;2.73;;;30.00;1.00;;;;;;5033941;28;20928;-80
2022/08/30 17:13:23;;;;;;;5.13;3.23;;;29.80;1.00;;;;;;5045708;28;20438;-81
2022/08/30 17:16:29;;;;;;;7.10;2.37;;;29.60;1.00;;;;;;5046706;28;20451;-82
2022/08/30 17:22:35;;;;;;;3.90;2.80;;;29.30;1.00;;;;;;5022770;28;20436;-82
2022/08/30 17:28:42;;;;;;;9.83;2.50;;;29.00;1.00;;;;;;5034781;28;20437;-80
2022/08/30 17:31:12;;;;;;;2.40;2.00;;;28.90;1.00;;;;;;5043345;28;20959;-80
2022/08/30 17:34:12;;;;;;;8.73;2.47;;;28.70;1.00;;;;;;5042817;28;20415;-77
2022/08/30 17:36:49;;;;;;;6.73;2.60;;;28.70;1.00;;;;;;5047062;28;20420;-77
2022/08/30 17:39:35;;;;;;;7.63;2.73;;;28.60;1.00;;;;;;5033312;28;20423;-80
2022/08/30 17:42:53;;;;;;;3.43;2.67;;;28.50;1.00;;;;;;5046617;28;20895;-80
2022/08/30 17:48:40;;;;;;;4.83;2.63;;;28.20;1.00;;;;;;5029483;28;20408;-80